createdAt,value
2018-04-16T00:00:46.136Z,0.00
2018-04-16T00:01:51.655Z,0.00
2018-04-16T00:02:57.167Z,0.00
2018-04-16T00:04:02.680Z,0.00
2018-04-16T00:05:08.197Z,0.00
2018-04-16T00:06:13.714Z,0.00
2018-04-16T00:07:19.228Z,0.00
2018-04-16T00:08:24.740Z,0.00
2018-04-16T00:09:30.254Z,0.00
2018-04-16T00:10:35.770Z,0.00
2018-04-16T00:11:41.287Z,0.00
2018-04-16T00:12:46.797Z,0.00
2018-04-16T00:13:52.308Z,0.00
2018-04-16T00:14:57.815Z,0.00
2018-04-16T00:16:03.334Z,0.00
2018-04-16T00:17:08.846Z,0.00
2018-04-16T00:18:14.361Z,0.00
2018-04-16T00:19:19.885Z,0.00
2018-04-16T00:20:25.385Z,0.00
2018-04-16T00:21:30.900Z,0.00
2018-04-16T00:22:36.419Z,0.00
2018-04-16T00:23:41.933Z,0.00
2018-04-16T00:24:47.440Z,0.00
2018-04-16T00:25:52.953Z,0.00
2018-04-16T00:26:58.471Z,0.00
2018-04-16T00:28:03.987Z,0.00
2018-04-16T00:29:09.505Z,0.00
2018-04-16T00:30:15.110Z,0.00
2018-04-16T00:31:20.523Z,0.00
2018-04-16T00:32:26.040Z,0.00
2018-04-16T00:33:31.554Z,0.00
2018-04-16T00:34:37.067Z,0.00
2018-04-16T00:35:42.582Z,0.00
2018-04-16T00:36:48.100Z,0.00
2018-04-16T00:37:53.609Z,0.00
2018-04-16T00:38:59.121Z,0.00
2018-04-16T00:40:04.637Z,0.00
2018-04-16T00:41:10.144Z,0.00
2018-04-16T00:42:15.659Z,0.00
2018-04-16T00:43:21.184Z,0.00
2018-04-16T00:44:26.685Z,0.00
2018-04-16T00:45:32.205Z,0.00
2018-04-16T00:46:37.717Z,0.00
2018-04-16T00:47:43.231Z,0.00
2018-04-16T00:48:48.743Z,0.00
2018-04-16T00:49:54.254Z,0.00
2018-04-16T00:50:59.768Z,0.00
2018-04-16T00:52:05.293Z,0.00
2018-04-16T00:53:10.854Z,0.00
2018-04-16T00:54:16.317Z,0.00
2018-04-16T00:55:21.825Z,0.00
2018-04-16T00:56:27.339Z,0.00
2018-04-16T00:57:32.851Z,0.00
2018-04-16T00:58:38.371Z,0.00
2018-04-16T00:59:43.879Z,0.00
2018-04-16T01:00:49.398Z,0.00
2018-04-16T01:01:54.907Z,0.00
2018-04-16T01:03:00.417Z,0.00
2018-04-16T01:04:05.936Z,0.00
2018-04-16T01:05:11.497Z,0.00
2018-04-16T01:06:17.059Z,0.00
2018-04-16T01:07:22.471Z,0.00
2018-04-16T01:08:27.987Z,0.00
2018-04-16T01:09:33.503Z,0.00
2018-04-16T01:10:39.012Z,0.00
2018-04-16T01:11:44.526Z,0.00
2018-04-16T01:12:50.049Z,0.00
2018-04-16T01:13:55.553Z,0.00
2018-04-16T01:15:01.068Z,0.00
2018-04-16T01:16:06.580Z,0.00
2018-04-16T01:17:12.094Z,0.00
2018-04-16T01:18:17.605Z,0.00
2018-04-16T01:19:23.119Z,0.00
2018-04-16T01:20:28.642Z,0.00
2018-04-16T01:21:34.147Z,0.00
2018-04-16T01:22:39.679Z,0.00
2018-04-16T01:23:45.179Z,0.00
2018-04-16T01:24:50.688Z,0.00
2018-04-16T01:25:56.201Z,0.00
2018-04-16T01:27:01.712Z,0.00
2018-04-16T01:28:07.228Z,0.00
2018-04-16T01:29:12.746Z,0.00
2018-04-16T01:30:18.260Z,0.00
2018-04-16T01:31:23.767Z,0.00
2018-04-16T01:32:29.284Z,0.00
2018-04-16T01:33:34.796Z,0.00
2018-04-16T01:34:40.309Z,0.00
2018-04-16T01:35:45.837Z,0.00
2018-04-16T01:36:51.431Z,0.00
2018-04-16T01:37:56.849Z,0.00
2018-04-16T01:39:02.367Z,0.00
2018-04-16T01:40:07.879Z,0.00
2018-04-16T01:41:13.392Z,0.00
2018-04-16T01:42:18.904Z,0.00
2018-04-16T01:43:24.418Z,0.00
2018-04-16T01:44:29.931Z,0.00
2018-04-16T01:45:35.456Z,0.00
2018-04-16T01:46:40.959Z,0.00
2018-04-16T01:47:46.473Z,0.00
2018-04-16T01:48:51.983Z,0.00
2018-04-16T01:49:57.505Z,0.00
2018-04-16T01:51:03.009Z,0.00
2018-04-16T01:52:08.522Z,0.00
2018-04-16T01:53:14.039Z,0.00
2018-04-16T01:54:19.555Z,0.00
2018-04-16T01:55:25.067Z,0.00
2018-04-16T01:56:30.577Z,0.00
2018-04-16T01:57:36.093Z,0.00
2018-04-16T01:58:41.604Z,0.00
2018-04-16T01:59:47.122Z,0.00
2018-04-16T02:00:52.635Z,0.00
2018-04-16T02:01:58.149Z,0.00
2018-04-16T02:03:03.662Z,0.00
2018-04-16T02:04:09.177Z,0.00
2018-04-16T02:05:14.684Z,0.00
2018-04-16T02:06:20.237Z,0.00
2018-04-16T02:07:25.708Z,0.00
2018-04-16T02:08:31.228Z,0.00
2018-04-16T02:09:36.742Z,0.00
2018-04-16T02:10:42.254Z,0.00
2018-04-16T02:11:47.765Z,0.00
2018-04-16T02:12:53.278Z,0.00
2018-04-16T02:13:58.791Z,0.00
2018-04-16T02:15:04.308Z,0.00
2018-04-16T02:16:09.817Z,0.00
2018-04-16T02:17:15.327Z,0.00
2018-04-16T02:18:20.848Z,0.00
2018-04-16T02:19:26.373Z,0.00
2018-04-16T02:20:31.875Z,0.00
2018-04-16T02:21:37.383Z,0.00
2018-04-16T02:22:42.896Z,0.00
2018-04-16T02:23:48.424Z,0.00
2018-04-16T02:24:53.928Z,0.00
2018-04-16T02:25:59.451Z,0.00
2018-04-16T02:27:04.958Z,0.00
2018-04-16T02:28:10.467Z,0.00
2018-04-16T02:29:15.979Z,0.00
2018-04-16T02:30:21.492Z,0.00
2018-04-16T02:31:27.003Z,20.00
2018-04-16T02:32:32.519Z,16.00
2018-04-16T02:33:38.029Z,16.00
2018-04-16T02:34:43.539Z,20.00
2018-04-16T02:35:49.061Z,20.00
2018-04-16T02:36:54.572Z,20.00
2018-04-16T02:38:00.085Z,20.00
2018-04-16T02:39:05.599Z,20.00
2018-04-16T02:40:11.112Z,16.00
2018-04-16T02:41:16.621Z,16.00
2018-04-16T02:42:22.134Z,16.00
2018-04-16T02:43:27.647Z,16.00
2018-04-16T02:44:33.168Z,16.00
2018-04-16T02:45:38.674Z,16.00
2018-04-16T02:46:44.311Z,16.00
2018-04-16T02:47:49.702Z,16.00
2018-04-16T02:48:55.218Z,16.00
2018-04-16T02:50:00.727Z,16.00
2018-04-16T02:51:06.240Z,16.00
2018-04-16T02:52:11.769Z,16.00
2018-04-16T02:53:17.265Z,16.00
2018-04-16T02:54:22.785Z,16.00
2018-04-16T02:55:28.300Z,20.00
2018-04-16T02:56:33.808Z,16.00
2018-04-16T02:57:39.318Z,16.00
2018-04-16T02:58:44.835Z,16.00
2018-04-16T02:59:50.346Z,16.00
2018-04-16T03:00:55.859Z,16.00
2018-04-16T03:02:01.372Z,16.00
2018-04-16T03:03:06.891Z,16.00
2018-04-16T03:04:12.404Z,16.00
2018-04-16T03:05:17.909Z,16.00
2018-04-16T03:06:23.421Z,16.00
2018-04-16T03:07:28.949Z,16.00
2018-04-16T03:08:34.447Z,16.00
2018-04-16T03:09:39.970Z,16.00
2018-04-16T03:10:45.480Z,16.00
2018-04-16T03:11:50.993Z,16.00
2018-04-16T03:12:56.499Z,16.00
2018-04-16T03:14:02.016Z,16.00
2018-04-16T03:15:07.527Z,16.00
2018-04-16T03:16:13.044Z,12.00
2018-04-16T03:17:18.554Z,16.00
2018-04-16T03:18:24.069Z,16.00
2018-04-16T03:19:29.579Z,16.00
2018-04-16T03:20:35.091Z,16.00
2018-04-16T03:21:40.604Z,16.00
2018-04-16T03:22:46.124Z,16.00
2018-04-16T03:23:51.635Z,16.00
2018-04-16T03:24:57.158Z,16.00
2018-04-16T03:26:02.659Z,16.00
2018-04-16T03:27:08.169Z,16.00
2018-04-16T03:28:13.718Z,12.00
2018-04-16T03:29:19.196Z,12.00
2018-04-16T03:30:24.714Z,12.00
2018-04-16T03:31:30.224Z,16.00
2018-04-16T03:32:35.734Z,12.00
2018-04-16T03:33:41.246Z,12.00
2018-04-16T03:34:46.761Z,12.00
2018-04-16T03:35:52.274Z,12.00
2018-04-16T03:36:57.782Z,12.00
2018-04-16T03:38:03.297Z,12.00
2018-04-16T03:39:08.811Z,12.00
2018-04-16T03:40:14.324Z,12.00
2018-04-16T03:41:19.838Z,12.00
2018-04-16T03:42:25.352Z,12.00
2018-04-16T03:43:30.867Z,12.00
2018-04-16T03:44:36.378Z,12.00
2018-04-16T03:45:41.897Z,16.00
2018-04-16T03:46:47.414Z,16.00
2018-04-16T03:47:52.918Z,16.00
2018-04-16T03:48:58.427Z,12.00
2018-04-16T03:50:03.944Z,12.00
2018-04-16T03:51:09.451Z,12.00
2018-04-16T03:52:14.968Z,12.00
2018-04-16T03:53:20.481Z,12.00
2018-04-16T03:54:25.995Z,12.00
2018-04-16T03:55:31.508Z,12.00
2018-04-16T03:56:37.024Z,12.00
2018-04-16T03:57:42.539Z,12.00
2018-04-16T03:58:48.047Z,12.00
2018-04-16T03:59:53.562Z,12.00
2018-04-16T04:00:59.071Z,16.00
2018-04-16T04:02:04.584Z,16.00
2018-04-16T04:03:10.101Z,16.00
2018-04-16T04:04:15.612Z,16.00
2018-04-16T04:05:21.129Z,16.00
2018-04-16T04:06:26.635Z,16.00
2018-04-16T04:07:32.154Z,16.00
2018-04-16T04:08:37.669Z,16.00
2018-04-16T04:09:43.180Z,16.00
2018-04-16T04:10:48.689Z,12.00
2018-04-16T04:11:54.200Z,0.00
2018-04-16T04:12:59.713Z,0.00
2018-04-16T04:14:05.228Z,0.00
2018-04-16T04:15:10.741Z,4.00
2018-04-16T04:16:16.255Z,4.00
2018-04-16T04:17:21.771Z,0.00
2018-04-16T04:18:27.280Z,4.00
2018-04-16T04:19:32.793Z,4.00
2018-04-16T04:20:38.303Z,8.00
2018-04-16T04:21:43.823Z,4.00
2018-04-16T04:22:49.334Z,8.00
2018-04-16T04:23:54.847Z,8.00
2018-04-16T04:25:00.399Z,8.00
2018-04-16T04:26:05.900Z,8.00
2018-04-16T04:27:11.381Z,8.00
2018-04-16T04:28:16.894Z,12.00
2018-04-16T04:29:22.406Z,12.00
2018-04-16T04:30:27.926Z,16.00
2018-04-16T04:31:33.437Z,16.00
2018-04-16T04:32:38.959Z,16.00
2018-04-16T04:33:44.460Z,20.00
2018-04-16T04:34:49.975Z,20.00
2018-04-16T04:35:55.495Z,24.00
2018-04-16T04:37:01.000Z,28.00
2018-04-16T04:38:06.517Z,28.00
2018-04-16T04:39:12.028Z,28.00
2018-04-16T04:40:17.548Z,32.00
2018-04-16T04:41:23.050Z,36.00
2018-04-16T04:42:28.564Z,36.00
2018-04-16T04:43:34.074Z,40.00
2018-04-16T04:44:39.587Z,44.00
2018-04-16T04:45:45.099Z,44.00
2018-04-16T04:46:50.616Z,48.00
2018-04-16T04:47:56.129Z,52.00
2018-04-16T04:49:01.652Z,52.00
2018-04-16T04:50:07.147Z,56.00
2018-04-16T04:51:12.660Z,60.00
2018-04-16T04:52:18.173Z,60.00
2018-04-16T04:53:23.684Z,64.00
2018-04-16T04:54:29.201Z,68.00
2018-04-16T04:55:34.722Z,72.00
2018-04-16T04:56:40.227Z,76.00
2018-04-16T04:57:45.741Z,76.00
2018-04-16T04:58:51.249Z,80.00
2018-04-16T04:59:56.765Z,84.00
2018-04-16T05:01:02.274Z,88.00
2018-04-16T05:02:07.788Z,92.00
2018-04-16T05:03:13.301Z,96.00
2018-04-16T05:04:18.813Z,100.00
2018-04-16T05:05:24.322Z,104.00
2018-04-16T05:06:29.896Z,108.00
2018-04-16T05:07:35.359Z,116.00
2018-04-16T05:08:40.872Z,120.00
2018-04-16T05:09:46.378Z,128.00
2018-04-16T05:10:52.009Z,132.00
2018-04-16T05:11:57.404Z,136.00
2018-04-16T05:13:02.993Z,144.00
2018-04-16T05:14:08.431Z,156.00
2018-04-16T05:15:13.949Z,164.00
2018-04-16T05:16:19.474Z,172.00
2018-04-16T05:17:24.963Z,184.00
2018-04-16T05:18:30.476Z,196.00
2018-04-16T05:19:35.990Z,204.00
2018-04-16T05:20:41.503Z,212.00
2018-04-16T05:21:47.010Z,212.00
2018-04-16T05:22:52.520Z,224.00
2018-04-16T05:23:58.038Z,236.00
2018-04-16T05:25:03.549Z,244.00
2018-04-16T05:26:09.059Z,256.00
2018-04-16T05:27:14.568Z,276.00
2018-04-16T05:28:20.090Z,272.00
2018-04-16T05:29:25.595Z,276.00
2018-04-16T05:30:31.110Z,292.00
2018-04-16T05:31:36.630Z,304.00
2018-04-16T05:32:42.129Z,308.00
2018-04-16T05:33:47.647Z,316.00
2018-04-16T05:34:53.156Z,332.00
2018-04-16T05:35:58.670Z,340.00
2018-04-16T05:37:04.196Z,352.00
2018-04-16T05:38:09.698Z,352.00
2018-04-16T05:39:15.204Z,340.00
2018-04-16T05:40:20.720Z,348.00
2018-04-16T05:41:26.230Z,348.00
2018-04-16T05:42:31.779Z,348.00
2018-04-16T05:43:37.258Z,360.00
2018-04-16T05:44:42.769Z,364.00
2018-04-16T05:45:48.279Z,360.00
2018-04-16T05:46:53.799Z,356.00
2018-04-16T05:47:59.308Z,352.00
2018-04-16T05:49:04.821Z,344.00
2018-04-16T05:50:10.332Z,344.00
2018-04-16T05:51:15.870Z,356.00
2018-04-16T05:52:21.364Z,348.00
2018-04-16T05:53:26.877Z,356.00
2018-04-16T05:54:32.463Z,356.00
2018-04-16T05:55:37.896Z,356.00
2018-04-16T05:56:43.410Z,348.00
2018-04-16T05:57:48.926Z,360.00
2018-04-16T05:58:54.436Z,360.00
2018-04-16T05:59:59.949Z,352.00
2018-04-16T06:01:05.462Z,340.00
2018-04-16T06:02:10.976Z,328.00
2018-04-16T06:03:16.488Z,340.00
2018-04-16T06:04:21.998Z,356.00
2018-04-16T06:05:27.514Z,364.00
2018-04-16T06:06:33.046Z,360.00
2018-04-16T06:07:38.550Z,352.00
2018-04-16T06:08:44.066Z,360.00
2018-04-16T06:09:49.564Z,364.00
2018-04-16T06:10:55.079Z,364.00
2018-04-16T06:12:00.590Z,376.00
2018-04-16T06:13:06.106Z,388.00
2018-04-16T06:14:11.616Z,396.00
2018-04-16T06:15:17.143Z,396.00
2018-04-16T06:16:22.643Z,396.00
2018-04-16T06:17:28.157Z,396.00
2018-04-16T06:18:33.670Z,392.00
2018-04-16T06:19:39.193Z,404.00
2018-04-16T06:20:44.700Z,412.00
2018-04-16T06:21:50.209Z,424.00
2018-04-16T06:22:55.729Z,440.00
2018-04-16T06:24:01.288Z,452.00
2018-04-16T06:25:06.752Z,460.00
2018-04-16T06:26:12.267Z,460.00
2018-04-16T06:27:17.822Z,460.00
2018-04-16T06:28:23.296Z,448.00
2018-04-16T06:29:28.810Z,436.00
2018-04-16T06:30:34.318Z,420.00
2018-04-16T06:31:39.832Z,420.00
2018-04-16T06:32:45.345Z,424.00
2018-04-16T06:33:50.872Z,440.00
2018-04-16T06:34:56.377Z,456.00
2018-04-16T06:36:01.887Z,472.00
2018-04-16T06:37:07.402Z,480.00
2018-04-16T06:38:12.912Z,484.00
2018-04-16T06:39:18.502Z,472.00
2018-04-16T06:40:23.942Z,472.00
2018-04-16T06:41:29.458Z,460.00
2018-04-16T06:42:34.969Z,484.00
2018-04-16T06:43:40.520Z,548.00
2018-04-16T06:44:45.999Z,536.00
2018-04-16T06:45:51.510Z,528.00
2018-04-16T06:46:57.028Z,544.00
2018-04-16T06:48:02.550Z,544.00
2018-04-16T06:49:08.056Z,544.00
2018-04-16T06:50:13.566Z,536.00
2018-04-16T06:51:19.080Z,544.00
2018-04-16T06:52:24.598Z,552.00
2018-04-16T06:53:30.110Z,572.00
2018-04-16T06:54:35.623Z,576.00
2018-04-16T06:55:41.139Z,584.00
2018-04-16T06:56:46.656Z,596.00
2018-04-16T06:57:52.164Z,636.00
2018-04-16T06:58:57.679Z,652.00
2018-04-16T07:00:03.247Z,656.00
2018-04-16T07:01:08.722Z,632.00
2018-04-16T07:02:14.231Z,628.00
2018-04-16T07:03:19.736Z,652.00
2018-04-16T07:04:25.270Z,692.00
2018-04-16T07:05:30.766Z,720.00
2018-04-16T07:06:36.276Z,708.00
2018-04-16T07:07:41.796Z,740.00
2018-04-16T07:08:47.310Z,736.00
2018-04-16T07:09:52.821Z,736.00
2018-04-16T07:10:58.337Z,768.00
2018-04-16T07:12:03.846Z,736.00
2018-04-16T07:13:09.369Z,692.00
2018-04-16T07:14:14.886Z,672.00
2018-04-16T07:15:20.395Z,596.00
2018-04-16T07:16:25.914Z,580.00
2018-04-16T07:17:31.460Z,564.00
2018-04-16T07:18:36.937Z,508.00
2018-04-16T07:19:42.450Z,540.00
2018-04-16T07:20:47.964Z,512.00
2018-04-16T07:21:53.490Z,528.00
2018-04-16T07:22:58.995Z,568.00
2018-04-16T07:24:04.508Z,524.00
2018-04-16T07:25:10.025Z,516.00
2018-04-16T07:26:15.540Z,508.00
2018-04-16T07:27:21.104Z,540.00
2018-04-16T07:28:26.567Z,584.00
2018-04-16T07:29:32.092Z,604.00
2018-04-16T07:30:37.602Z,668.00
2018-04-16T07:31:43.116Z,684.00
2018-04-16T07:32:48.624Z,696.00
2018-04-16T07:33:54.142Z,732.00
2018-04-16T07:34:59.662Z,740.00
2018-04-16T07:36:05.183Z,772.00
2018-04-16T07:37:10.687Z,796.00
2018-04-16T07:38:16.200Z,804.00
2018-04-16T07:39:21.715Z,788.00
2018-04-16T07:40:27.231Z,760.00
2018-04-16T07:41:32.746Z,716.00
2018-04-16T07:42:38.272Z,704.00
2018-04-16T07:43:43.831Z,684.00
2018-04-16T07:44:49.301Z,684.00
2018-04-16T07:45:54.807Z,720.00
2018-04-16T07:47:00.328Z,752.00
2018-04-16T07:48:05.834Z,768.00
2018-04-16T07:49:11.357Z,780.00
2018-04-16T07:50:16.872Z,712.00
2018-04-16T07:51:22.380Z,712.00
2018-04-16T07:52:27.896Z,708.00
2018-04-16T07:53:33.414Z,720.00
2018-04-16T07:54:38.927Z,712.00
2018-04-16T07:55:44.453Z,748.00
2018-04-16T07:56:49.957Z,820.00
2018-04-16T07:57:55.480Z,940.00
2018-04-16T07:59:00.998Z,844.00
2018-04-16T08:00:06.509Z,812.00
2018-04-16T08:01:12.022Z,828.00
2018-04-16T08:02:17.539Z,912.00
2018-04-16T08:03:23.056Z,992.00
2018-04-16T08:04:28.568Z,1016.00
2018-04-16T08:05:34.090Z,936.00
2018-04-16T08:06:39.638Z,944.00
2018-04-16T08:07:45.144Z,1048.00
2018-04-16T08:08:50.626Z,1068.00
2018-04-16T08:09:56.155Z,1052.00
2018-04-16T08:11:01.658Z,1040.00
2018-04-16T08:12:07.178Z,916.00
2018-04-16T08:13:12.689Z,1016.00
2018-04-16T08:14:18.202Z,1024.00
2018-04-16T08:15:23.721Z,1028.00
2018-04-16T08:16:29.235Z,1036.00
2018-04-16T08:17:34.753Z,1072.00
2018-04-16T08:18:40.267Z,920.00
2018-04-16T08:19:45.790Z,1104.00
2018-04-16T08:20:51.298Z,1000.00
2018-04-16T08:21:56.824Z,1116.00
2018-04-16T08:23:02.327Z,1056.00
2018-04-16T08:24:07.846Z,1180.00
2018-04-16T08:25:13.375Z,1196.00
2018-04-16T08:26:18.887Z,1060.00
2018-04-16T08:27:24.409Z,1036.00
2018-04-16T08:28:29.924Z,1004.00
2018-04-16T08:29:35.433Z,1028.00
2018-04-16T08:30:40.947Z,1160.00
2018-04-16T08:31:46.464Z,1180.00
2018-04-16T08:32:51.976Z,1156.00
2018-04-16T08:33:57.496Z,1184.00
2018-04-16T08:35:03.016Z,1200.00
2018-04-16T08:36:08.527Z,1232.00
2018-04-16T08:37:14.041Z,1228.00
2018-04-16T08:38:19.557Z,1272.00
2018-04-16T08:39:25.068Z,1308.00
2018-04-16T08:40:30.582Z,1344.00
2018-04-16T08:41:36.109Z,1364.00
2018-04-16T08:42:41.620Z,1372.00
2018-04-16T08:43:47.163Z,1376.00
2018-04-16T08:44:52.653Z,1384.00
2018-04-16T08:45:58.191Z,1424.00
2018-04-16T08:47:03.685Z,1428.00
2018-04-16T08:48:09.197Z,1404.00
2018-04-16T08:49:14.714Z,1500.00
2018-04-16T08:50:20.242Z,1544.00
2018-04-16T08:51:25.749Z,1592.00
2018-04-16T08:52:31.321Z,1624.00
2018-04-16T08:53:36.791Z,1668.00
2018-04-16T08:54:42.294Z,1704.00
2018-04-16T08:55:47.813Z,1664.00
2018-04-16T08:56:53.328Z,1652.00
2018-04-16T08:57:58.848Z,1640.00
2018-04-16T08:59:04.374Z,1676.00
2018-04-16T09:00:09.883Z,1644.00
2018-04-16T09:01:15.405Z,1600.00
2018-04-16T09:02:20.911Z,1672.00
2018-04-16T09:03:26.437Z,1644.00
2018-04-16T09:04:31.951Z,1652.00
2018-04-16T09:05:37.465Z,1668.00
2018-04-16T09:06:42.986Z,1644.00
2018-04-16T09:07:48.602Z,1560.00
2018-04-16T09:08:54.026Z,1544.00
2018-04-16T09:09:59.531Z,1500.00
2018-04-16T09:11:05.048Z,1440.00
2018-04-16T09:12:10.572Z,1360.00
2018-04-16T09:13:16.090Z,1276.00
2018-04-16T09:14:21.602Z,1268.00
2018-04-16T09:15:27.115Z,1076.00
2018-04-16T09:16:32.633Z,980.00
2018-04-16T09:17:38.150Z,1032.00
2018-04-16T09:18:43.671Z,960.00
2018-04-16T09:19:49.196Z,956.00
2018-04-16T09:20:54.704Z,928.00
2018-04-16T09:22:00.231Z,908.00
2018-04-16T09:23:05.742Z,920.00
2018-04-16T09:24:11.257Z,932.00
2018-04-16T09:25:16.778Z,912.00
2018-04-16T09:26:22.288Z,900.00
2018-04-16T09:27:27.817Z,908.00
2018-04-16T09:28:33.328Z,920.00
2018-04-16T09:29:38.838Z,964.00
2018-04-16T09:30:44.361Z,1040.00
2018-04-16T09:31:49.875Z,1036.00
2018-04-16T09:32:55.394Z,1072.00
2018-04-16T09:34:00.908Z,1080.00
2018-04-16T09:35:06.426Z,1100.00
2018-04-16T09:36:11.947Z,1112.00
2018-04-16T09:37:17.458Z,1124.00
2018-04-16T09:38:22.981Z,1256.00
2018-04-16T09:39:28.500Z,1372.00
2018-04-16T09:40:34.011Z,1432.00
2018-04-16T09:41:39.527Z,1440.00
2018-04-16T09:42:45.045Z,1576.00
2018-04-16T09:43:50.568Z,1700.00
2018-04-16T09:44:56.086Z,1700.00
2018-04-16T09:46:01.595Z,1572.00
2018-04-16T09:47:07.113Z,1456.00
2018-04-16T09:48:12.633Z,1704.00
2018-04-16T09:49:18.148Z,1488.00
2018-04-16T09:50:23.701Z,1600.00
2018-04-16T09:51:29.183Z,1652.00
2018-04-16T09:52:34.698Z,1336.00
2018-04-16T09:53:40.218Z,1488.00
2018-04-16T09:54:45.736Z,1432.00
2018-04-16T09:55:51.267Z,1396.00
2018-04-16T09:56:56.777Z,1404.00
2018-04-16T09:58:02.289Z,1344.00
2018-04-16T09:59:07.801Z,1380.00
2018-04-16T10:00:13.399Z,1224.00
2018-04-16T10:01:18.839Z,1396.00
2018-04-16T10:02:24.354Z,1316.00
2018-04-16T10:03:29.874Z,1328.00
2018-04-16T10:04:35.388Z,1400.00
2018-04-16T10:05:41.034Z,1644.00
2018-04-16T10:06:46.428Z,1816.00
2018-04-16T10:07:51.948Z,1764.00
2018-04-16T10:08:57.464Z,1712.00
2018-04-16T10:10:02.975Z,1632.00
2018-04-16T10:11:08.503Z,1412.00
2018-04-16T10:12:14.010Z,1520.00
2018-04-16T10:13:19.535Z,1508.00
2018-04-16T10:14:25.046Z,1632.00
2018-04-16T10:15:30.572Z,1528.00
2018-04-16T10:16:36.080Z,1488.00
2018-04-16T10:17:41.597Z,1556.00
2018-04-16T10:18:47.121Z,1644.00
2018-04-16T10:19:52.642Z,1716.00
2018-04-16T10:20:58.150Z,1652.00
2018-04-16T10:22:03.669Z,1608.00
2018-04-16T10:23:09.185Z,1492.00
2018-04-16T10:24:14.704Z,1412.00
2018-04-16T10:25:20.217Z,1420.00
2018-04-16T10:26:25.789Z,1432.00
2018-04-16T10:27:31.255Z,1424.00
2018-04-16T10:28:36.770Z,1316.00
2018-04-16T10:29:42.293Z,1368.00
2018-04-16T10:30:47.810Z,1316.00
2018-04-16T10:31:53.327Z,1288.00
2018-04-16T10:32:58.850Z,1188.00
2018-04-16T10:34:04.372Z,1128.00
2018-04-16T10:35:09.877Z,1088.00
2018-04-16T10:36:15.399Z,1084.00
2018-04-16T10:37:20.916Z,1232.00
2018-04-16T10:38:26.510Z,1272.00
2018-04-16T10:39:31.951Z,1292.00
2018-04-16T10:40:37.474Z,1360.00
2018-04-16T10:41:42.996Z,1436.00
2018-04-16T10:42:48.502Z,1536.00
2018-04-16T10:43:54.021Z,1520.00
2018-04-16T10:44:59.539Z,1484.00
2018-04-16T10:46:05.052Z,1520.00
2018-04-16T10:47:10.577Z,1416.00
2018-04-16T10:48:16.089Z,1400.00
2018-04-16T10:49:21.626Z,1128.00
2018-04-16T10:50:27.124Z,1184.00
2018-04-16T10:51:32.659Z,1268.00
2018-04-16T10:52:38.157Z,1316.00
2018-04-16T10:53:43.680Z,1504.00
2018-04-16T10:54:49.201Z,1416.00
2018-04-16T10:55:54.713Z,1268.00
2018-04-16T10:57:00.234Z,1256.00
2018-04-16T10:58:05.759Z,1348.00
2018-04-16T10:59:11.305Z,1392.00
2018-04-16T11:00:16.781Z,1460.00
2018-04-16T11:01:22.299Z,1460.00
2018-04-16T11:02:27.818Z,1696.00
2018-04-16T11:03:33.339Z,1432.00
2018-04-16T11:04:38.852Z,1492.00
2018-04-16T11:05:44.374Z,1816.00
2018-04-16T11:06:49.889Z,1792.00
2018-04-16T11:07:55.406Z,1640.00
2018-04-16T11:09:00.935Z,1556.00
2018-04-16T11:10:06.442Z,1620.00
2018-04-16T11:11:11.961Z,1492.00
2018-04-16T11:12:17.476Z,1504.00
2018-04-16T11:13:22.998Z,1260.00
2018-04-16T11:14:28.535Z,1328.00
2018-04-16T11:15:34.038Z,1476.00
2018-04-16T11:16:39.553Z,1736.00
2018-04-16T11:17:45.082Z,1748.00
2018-04-16T11:18:50.585Z,2232.00
2018-04-16T11:19:56.101Z,2412.00
2018-04-16T11:21:01.624Z,2284.00
2018-04-16T11:22:07.136Z,1644.00
2018-04-16T11:23:12.659Z,1432.00
2018-04-16T11:24:18.192Z,1140.00
2018-04-16T11:25:23.697Z,820.00
2018-04-16T11:26:29.251Z,756.00
2018-04-16T11:27:34.729Z,864.00
2018-04-16T11:28:40.249Z,928.00
2018-04-16T11:29:45.765Z,1012.00
2018-04-16T11:30:51.282Z,1164.00
2018-04-16T11:31:56.804Z,1332.00
2018-04-16T11:33:02.328Z,1500.00
2018-04-16T11:34:07.844Z,1780.00
2018-04-16T11:35:13.363Z,2132.00
2018-04-16T11:36:18.869Z,2436.00
2018-04-16T11:37:24.388Z,2580.00
2018-04-16T11:38:30.001Z,2548.00
2018-04-16T11:39:35.428Z,2548.00
2018-04-16T11:40:40.948Z,2408.00
2018-04-16T11:41:46.471Z,2456.00
2018-04-16T11:42:51.983Z,2244.00
2018-04-16T11:43:57.498Z,1900.00
2018-04-16T11:45:03.019Z,1476.00
2018-04-16T11:46:08.534Z,1232.00
2018-04-16T11:47:14.058Z,1288.00
2018-04-16T11:48:19.579Z,1140.00
2018-04-16T11:49:25.103Z,1276.00
2018-04-16T11:50:30.611Z,1276.00
2018-04-16T11:51:36.129Z,1304.00
2018-04-16T11:52:41.648Z,1404.00
2018-04-16T11:53:47.169Z,1524.00
2018-04-16T11:54:52.689Z,1628.00
2018-04-16T11:55:58.210Z,1684.00
2018-04-16T11:57:03.723Z,1640.00
2018-04-16T11:58:09.237Z,1944.00
2018-04-16T11:59:14.757Z,1840.00
2018-04-16T12:00:20.275Z,1500.00
2018-04-16T12:01:25.802Z,2016.00
2018-04-16T12:02:31.314Z,2104.00
2018-04-16T12:03:36.833Z,2084.00
2018-04-16T12:04:42.392Z,1828.00
2018-04-16T12:05:47.866Z,1496.00
2018-04-16T12:06:53.394Z,1344.00
2018-04-16T12:07:58.904Z,948.00
2018-04-16T12:09:04.425Z,984.00
2018-04-16T12:10:09.948Z,1128.00
2018-04-16T12:11:15.463Z,1188.00
2018-04-16T12:12:21.003Z,1152.00
2018-04-16T12:13:26.518Z,1180.00
2018-04-16T12:14:32.023Z,1312.00
2018-04-16T12:15:37.540Z,1396.00
2018-04-16T12:16:43.093Z,1360.00
2018-04-16T12:17:48.571Z,1476.00
2018-04-16T12:18:54.088Z,1564.00
2018-04-16T12:19:59.612Z,1736.00
2018-04-16T12:21:05.129Z,1896.00
2018-04-16T12:22:10.641Z,2000.00
2018-04-16T12:23:16.172Z,2112.00
2018-04-16T12:24:21.692Z,2244.00
2018-04-16T12:25:27.195Z,2392.00
2018-04-16T12:26:32.715Z,2712.00
2018-04-16T12:27:38.250Z,2556.00
2018-04-16T12:28:43.751Z,2280.00
2018-04-16T12:29:49.278Z,2220.00
2018-04-16T12:30:54.791Z,2004.00
2018-04-16T12:32:00.309Z,2276.00
2018-04-16T12:33:05.890Z,1408.00
2018-04-16T12:34:11.347Z,1500.00
2018-04-16T12:35:16.868Z,2192.00
2018-04-16T12:36:22.388Z,1768.00
2018-04-16T12:37:27.899Z,1572.00
2018-04-16T12:38:33.414Z,1796.00
2018-04-16T12:39:38.960Z,1700.00
2018-04-16T12:40:44.455Z,1916.00
2018-04-16T12:41:49.976Z,2036.00
2018-04-16T12:42:55.502Z,1904.00
2018-04-16T12:44:01.008Z,1584.00
2018-04-16T12:45:06.532Z,1464.00
2018-04-16T12:46:12.047Z,1776.00
2018-04-16T12:47:17.569Z,1248.00
2018-04-16T12:48:23.083Z,1516.00
2018-04-16T12:49:28.602Z,1176.00
2018-04-16T12:50:34.133Z,1376.00
2018-04-16T12:51:39.659Z,1300.00
2018-04-16T12:52:45.162Z,1644.00
2018-04-16T12:53:50.676Z,1768.00
2018-04-16T12:54:56.195Z,2356.00
2018-04-16T12:56:01.716Z,2212.00
2018-04-16T12:57:07.233Z,2216.00
2018-04-16T12:58:12.761Z,2112.00
2018-04-16T12:59:18.268Z,2044.00
2018-04-16T13:00:23.796Z,2260.00
2018-04-16T13:01:29.333Z,2348.00
2018-04-16T13:02:34.836Z,2268.00
2018-04-16T13:03:40.349Z,2116.00
2018-04-16T13:04:45.860Z,2176.00
2018-04-16T13:05:51.379Z,1948.00
2018-04-16T13:06:56.899Z,1924.00
2018-04-16T13:08:02.430Z,1936.00
2018-04-16T13:09:07.941Z,1952.00
2018-04-16T13:10:13.461Z,2004.00
2018-04-16T13:11:18.984Z,1960.00
2018-04-16T13:12:24.498Z,1872.00
2018-04-16T13:13:30.022Z,1780.00
2018-04-16T13:14:35.534Z,1976.00
2018-04-16T13:15:41.052Z,2144.00
2018-04-16T13:16:46.567Z,2120.00
2018-04-16T13:17:52.088Z,2092.00
2018-04-16T13:18:57.619Z,2108.00
2018-04-16T13:20:03.160Z,2092.00
2018-04-16T13:21:08.649Z,2128.00
2018-04-16T13:22:14.170Z,2072.00
2018-04-16T13:23:19.700Z,2108.00
2018-04-16T13:24:25.198Z,2208.00
2018-04-16T13:25:30.720Z,2288.00
2018-04-16T13:26:36.241Z,2168.00
2018-04-16T13:27:41.756Z,2172.00
2018-04-16T13:28:47.279Z,2460.00
2018-04-16T13:29:52.798Z,2304.00
2018-04-16T13:30:58.316Z,1764.00
2018-04-16T13:32:03.842Z,1680.00
2018-04-16T13:33:09.356Z,1740.00
2018-04-16T13:34:14.877Z,1788.00
2018-04-16T13:35:20.399Z,1980.00
2018-04-16T13:36:25.971Z,2124.00
2018-04-16T13:37:31.438Z,2308.00
2018-04-16T13:38:36.958Z,2288.00
2018-04-16T13:39:42.488Z,2200.00
2018-04-16T13:40:47.994Z,2196.00
2018-04-16T13:41:53.520Z,1728.00